sensor_id;sensor_type;location;lat;lon;timestamp;temperature;humidity
1568;DHT22;777;47.156;8.326;2022-12-07T00:01:13;0.90;99.90
1568;DHT22;777;47.156;8.326;2022-12-07T00:03:55;0.90;99.90
1568;DHT22;777;47.156;8.326;2022-12-07T00:06:30;0.90;99.90
1568;DHT22;777;47.156;8.326;2022-12-07T00:09:00;0.90;99.90
1568;DHT22;777;47.156;8.326;2022-12-07T00:11:28;0.90;99.90
1568;DHT22;777;47.156;8.326;2022-12-07T00:13:57;0.90;99.90
1568;DHT22;777;47.156;8.326;2022-12-07T00:16:27;0.90;99.90
1568;DHT22;777;47.156;8.326;2022-12-07T00:18:56;0.90;99.90
1568;DHT22;777;47.156;8.326;2022-12-07T00:21:28;0.90;99.90
1568;DHT22;777;47.156;8.326;2022-12-07T00:23:56;0.90;99.90
1568;DHT22;777;47.156;8.326;2022-12-07T00:26:25;0.90;99.90
1568;DHT22;777;47.156;8.326;2022-12-07T00:28:58;0.90;99.90
1568;DHT22;777;47.156;8.326;2022-12-07T00:31:31;0.80;99.90
1568;DHT22;777;47.156;8.326;2022-12-07T00:34:02;0.90;99.90
1568;DHT22;777;47.156;8.326;2022-12-07T00:36:29;0.90;99.90
1568;DHT22;777;47.156;8.326;2022-12-07T00:38:58;0.90;99.90
1568;DHT22;777;47.156;8.326;2022-12-07T00:41:27;0.90;99.90
1568;DHT22;777;47.156;8.326;2022-12-07T00:43:54;0.90;99.90
1568;DHT22;777;47.156;8.326;2022-12-07T00:46:22;0.90;99.90
1568;DHT22;777;47.156;8.326;2022-12-07T00:48:51;0.90;99.90
1568;DHT22;777;47.156;8.326;2022-12-07T00:51:21;0.90;99.90
1568;DHT22;777;47.156;8.326;2022-12-07T00:53:50;0.90;99.90
1568;DHT22;777;47.156;8.326;2022-12-07T00:56:20;0.90;99.90
1568;DHT22;777;47.156;8.326;2022-12-07T00:58:51;0.90;99.90
1568;DHT22;777;47.156;8.326;2022-12-07T01:01:20;0.90;99.90
1568;DHT22;777;47.156;8.326;2022-12-07T01:03:47;0.90;99.90
1568;DHT22;777;47.156;8.326;2022-12-07T01:06:15;0.90;99.90
1568;DHT22;777;47.156;8.326;2022-12-07T01:08:45;0.90;99.90
1568;DHT22;777;47.156;8.326;2022-12-07T01:11:13;0.80;99.90
1568;DHT22;777;47.156;8.326;2022-12-07T01:13:41;0.80;99.90
1568;DHT22;777;47.156;8.326;2022-12-07T01:16:11;0.80;99.90
1568;DHT22;777;47.156;8.326;2022-12-07T01:18:39;0.80;99.90
1568;DHT22;777;47.156;8.326;2022-12-07T01:21:09;0.80;99.90
1568;DHT22;777;47.156;8.326;2022-12-07T01:23:38;0.80;99.90
1568;DHT22;777;47.156;8.326;2022-12-07T01:26:13;0.80;99.90
1568;DHT22;777;47.156;8.326;2022-12-07T01:28:42;0.80;99.90
1568;DHT22;777;47.156;8.326;2022-12-07T01:31:14;0.80;99.90
1568;DHT22;777;47.156;8.326;2022-12-07T01:33:44;0.80;99.90
1568;DHT22;777;47.156;8.326;2022-12-07T01:36:14;0.80;99.90
1568;DHT22;777;47.156;8.326;2022-12-07T01:38:43;0.80;99.90
1568;DHT22;777;47.156;8.326;2022-12-07T01:41:15;0.90;99.90
1568;DHT22;777;47.156;8.326;2022-12-07T01:44:14;0.80;99.90
1568;DHT22;777;47.156;8.326;2022-12-07T01:46:43;0.90;99.90
1568;DHT22;777;47.156;8.326;2022-12-07T01:49:24;0.90;99.90
1568;DHT22;777;47.156;8.326;2022-12-07T01:51:58;0.80;99.90
1568;DHT22;777;47.156;8.326;2022-12-07T01:54:28;0.80;99.90
1568;DHT22;777;47.156;8.326;2022-12-07T01:57:06;0.80;99.90
1568;DHT22;777;47.156;8.326;2022-12-07T01:59:36;0.90;99.90
1568;DHT22;777;47.156;8.326;2022-12-07T02:02:10;0.90;99.90
1568;DHT22;777;47.156;8.326;2022-12-07T02:04:38;1.00;99.90
1568;DHT22;777;47.156;8.326;2022-12-07T02:07:06;1.00;99.90
1568;DHT22;777;47.156;8.326;2022-12-07T02:09:34;1.00;99.90
1568;DHT22;777;47.156;8.326;2022-12-07T02:12:02;1.00;99.90
1568;DHT22;777;47.156;8.326;2022-12-07T02:14:32;1.10;99.90
1568;DHT22;777;47.156;8.326;2022-12-07T02:17:07;1.10;99.90
1568;DHT22;777;47.156;8.326;2022-12-07T02:20:00;1.10;99.90
1568;DHT22;777;47.156;8.326;2022-12-07T02:22:55;1.20;99.90
1568;DHT22;777;47.156;8.326;2022-12-07T02:25:40;1.20;99.90
1568;DHT22;777;47.156;8.326;2022-12-07T02:28:19;1.20;99.90
1568;DHT22;777;47.156;8.326;2022-12-07T02:31:09;1.20;99.90
1568;DHT22;777;47.156;8.326;2022-12-07T02:33:42;1.20;99.90
1568;DHT22;777;47.156;8.326;2022-12-07T02:36:16;1.20;99.90
1568;DHT22;777;47.156;8.326;2022-12-07T02:38:48;1.20;99.90
1568;DHT22;777;47.156;8.326;2022-12-07T02:41:21;1.20;99.90
1568;DHT22;777;47.156;8.326;2022-12-07T02:43:53;1.20;99.90
1568;DHT22;777;47.156;8.326;2022-12-07T02:46:25;1.20;99.90
1568;DHT22;777;47.156;8.326;2022-12-07T02:48:54;1.20;99.90
1568;DHT22;777;47.156;8.326;2022-12-07T02:51:22;1.20;99.90
1568;DHT22;777;47.156;8.326;2022-12-07T02:53:49;1.20;99.90
1568;DHT22;777;47.156;8.326;2022-12-07T02:56:30;1.20;99.90
1568;DHT22;777;47.156;8.326;2022-12-07T02:59:10;1.20;99.90
1568;DHT22;777;47.156;8.326;2022-12-07T03:01:50;1.20;99.90
1568;DHT22;777;47.156;8.326;2022-12-07T03:04:31;1.20;99.90
1568;DHT22;777;47.156;8.326;2022-12-07T03:07:06;1.20;99.90
1568;DHT22;777;47.156;8.326;2022-12-07T03:09:43;1.20;99.90
1568;DHT22;777;47.156;8.326;2022-12-07T03:12:16;1.20;99.90
1568;DHT22;777;47.156;8.326;2022-12-07T03:14:50;1.20;99.90
1568;DHT22;777;47.156;8.326;2022-12-07T03:17:26;1.20;99.90
1568;DHT22;777;47.156;8.326;2022-12-07T03:19:57;1.20;99.90
1568;DHT22;777;47.156;8.326;2022-12-07T03:22:29;1.20;99.90
1568;DHT22;777;47.156;8.326;2022-12-07T03:25:00;1.20;99.90
1568;DHT22;777;47.156;8.326;2022-12-07T03:27:34;1.30;99.90
1568;DHT22;777;47.156;8.326;2022-12-07T03:30:05;1.30;99.90
1568;DHT22;777;47.156;8.326;2022-12-07T03:32:38;1.30;99.90
1568;DHT22;777;47.156;8.326;2022-12-07T03:35:11;1.30;99.90
1568;DHT22;777;47.156;8.326;2022-12-07T03:37:45;1.30;99.90
1568;DHT22;777;47.156;8.326;2022-12-07T03:40:19;1.30;99.90
1568;DHT22;777;47.156;8.326;2022-12-07T03:42:51;1.30;99.90
1568;DHT22;777;47.156;8.326;2022-12-07T03:45:24;1.30;99.90
1568;DHT22;777;47.156;8.326;2022-12-07T03:47:59;1.30;99.90
1568;DHT22;777;47.156;8.326;2022-12-07T03:50:32;1.20;99.90
1568;DHT22;777;47.156;8.326;2022-12-07T03:53:05;1.30;99.90
1568;DHT22;777;47.156;8.326;2022-12-07T03:55:39;1.30;99.90
1568;DHT22;777;47.156;8.326;2022-12-07T03:58:11;1.30;99.90
1568;DHT22;777;47.156;8.326;2022-12-07T04:00:40;1.30;99.90
1568;DHT22;777;47.156;8.326;2022-12-07T04:03:10;1.30;99.90
1568;DHT22;777;47.156;8.326;2022-12-07T04:05:40;1.30;99.90
1568;DHT22;777;47.156;8.326;2022-12-07T04:08:07;1.30;99.90
1568;DHT22;777;47.156;8.326;2022-12-07T04:10:35;1.30;99.90
1568;DHT22;777;47.156;8.326;2022-12-07T04:13:02;1.30;99.90
1568;DHT22;777;47.156;8.326;2022-12-07T04:15:30;1.30;99.90
1568;DHT22;777;47.156;8.326;2022-12-07T04:17:58;1.30;99.90
1568;DHT22;777;47.156;8.326;2022-12-07T04:20:28;1.40;99.90
1568;DHT22;777;47.156;8.326;2022-12-07T04:22:58;1.30;99.90
1568;DHT22;777;47.156;8.326;2022-12-07T04:25:25;1.30;99.90
1568;DHT22;777;47.156;8.326;2022-12-07T04:27:53;1.30;99.90
1568;DHT22;777;47.156;8.326;2022-12-07T04:30:20;1.30;99.90
1568;DHT22;777;47.156;8.326;2022-12-07T04:32:48;1.30;99.90
1568;DHT22;777;47.156;8.326;2022-12-07T04:35:15;1.30;99.90
1568;DHT22;777;47.156;8.326;2022-12-07T04:37:44;1.30;99.90
1568;DHT22;777;47.156;8.326;2022-12-07T04:40:13;1.30;99.90
1568;DHT22;777;47.156;8.326;2022-12-07T04:42:40;1.30;99.90
1568;DHT22;777;47.156;8.326;2022-12-07T04:45:09;1.30;99.90
1568;DHT22;777;47.156;8.326;2022-12-07T04:47:36;1.30;99.90
1568;DHT22;777;47.156;8.326;2022-12-07T04:50:06;1.30;99.90
1568;DHT22;777;47.156;8.326;2022-12-07T04:52:38;1.30;99.90
1568;DHT22;777;47.156;8.326;2022-12-07T04:55:07;1.30;99.90
1568;DHT22;777;47.156;8.326;2022-12-07T04:57:35;1.40;99.90
1568;DHT22;777;47.156;8.326;2022-12-07T05:00:04;1.40;99.90
1568;DHT22;777;47.156;8.326;2022-12-07T05:02:31;1.40;99.90
1568;DHT22;777;47.156;8.326;2022-12-07T05:04:59;1.40;99.90
1568;DHT22;777;47.156;8.326;2022-12-07T05:07:26;1.40;99.90
1568;DHT22;777;47.156;8.326;2022-12-07T05:09:54;1.40;99.90
1568;DHT22;777;47.156;8.326;2022-12-07T05:12:23;1.40;99.90
1568;DHT22;777;47.156;8.326;2022-12-07T05:14:50;1.40;99.90
1568;DHT22;777;47.156;8.326;2022-12-07T05:17:19;1.40;99.90
1568;DHT22;777;47.156;8.326;2022-12-07T05:19:46;1.40;99.90
1568;DHT22;777;47.156;8.326;2022-12-07T05:22:13;1.40;99.90
1568;DHT22;777;47.156;8.326;2022-12-07T05:24:41;1.40;99.90
1568;DHT22;777;47.156;8.326;2022-12-07T05:27:08;1.40;99.90
1568;DHT22;777;47.156;8.326;2022-12-07T05:29:37;1.40;99.90
1568;DHT22;777;47.156;8.326;2022-12-07T05:32:04;1.50;99.90
1568;DHT22;777;47.156;8.326;2022-12-07T05:34:33;1.50;99.90
1568;DHT22;777;47.156;8.326;2022-12-07T05:37:03;1.40;99.90
1568;DHT22;777;47.156;8.326;2022-12-07T05:39:32;1.40;99.90
1568;DHT22;777;47.156;8.326;2022-12-07T05:42:01;1.40;99.90
1568;DHT22;777;47.156;8.326;2022-12-07T05:44:46;1.30;99.90
1568;DHT22;777;47.156;8.326;2022-12-07T05:47:14;1.30;99.90
1568;DHT22;777;47.156;8.326;2022-12-07T05:49:45;1.30;99.90
1568;DHT22;777;47.156;8.326;2022-12-07T05:52:12;1.30;99.90
1568;DHT22;777;47.156;8.326;2022-12-07T05:54:39;1.30;99.90
1568;DHT22;777;47.156;8.326;2022-12-07T05:57:07;1.20;99.90
1568;DHT22;777;47.156;8.326;2022-12-07T05:59:34;1.20;99.90
1568;DHT22;777;47.156;8.326;2022-12-07T06:02:03;1.20;99.90
1568;DHT22;777;47.156;8.326;2022-12-07T06:04:33;1.20;99.90
1568;DHT22;777;47.156;8.326;2022-12-07T06:07:00;1.20;99.90
1568;DHT22;777;47.156;8.326;2022-12-07T06:09:28;1.20;99.90
1568;DHT22;777;47.156;8.326;2022-12-07T06:11:56;1.20;99.90
1568;DHT22;777;47.156;8.326;2022-12-07T06:14:41;1.20;99.90
1568;DHT22;777;47.156;8.326;2022-12-07T06:17:09;1.20;99.90
1568;DHT22;777;47.156;8.326;2022-12-07T06:19:37;1.20;99.90
1568;DHT22;777;47.156;8.326;2022-12-07T06:22:05;1.20;99.90
1568;DHT22;777;47.156;8.326;2022-12-07T06:24:33;1.20;99.90
1568;DHT22;777;47.156;8.326;2022-12-07T06:27:00;1.20;99.90
1568;DHT22;777;47.156;8.326;2022-12-07T06:29:27;1.20;99.90
1568;DHT22;777;47.156;8.326;2022-12-07T06:31:54;1.20;99.90
1568;DHT22;777;47.156;8.326;2022-12-07T06:34:24;1.20;99.90
1568;DHT22;777;47.156;8.326;2022-12-07T06:36:51;1.30;99.90
1568;DHT22;777;47.156;8.326;2022-12-07T06:39:22;1.30;99.90
1568;DHT22;777;47.156;8.326;2022-12-07T06:41:49;1.30;99.90
1568;DHT22;777;47.156;8.326;2022-12-07T06:44:17;1.30;99.90
1568;DHT22;777;47.156;8.326;2022-12-07T06:46:45;1.30;99.90
1568;DHT22;777;47.156;8.326;2022-12-07T06:49:12;1.30;99.90
1568;DHT22;777;47.156;8.326;2022-12-07T06:51:40;1.30;99.90
1568;DHT22;777;47.156;8.326;2022-12-07T06:54:08;1.30;99.90
1568;DHT22;777;47.156;8.326;2022-12-07T06:56:35;1.30;99.90
1568;DHT22;777;47.156;8.326;2022-12-07T06:59:02;1.30;99.90
1568;DHT22;777;47.156;8.326;2022-12-07T07:01:31;1.30;99.90
1568;DHT22;777;47.156;8.326;2022-12-07T07:03:58;1.30;99.90
1568;DHT22;777;47.156;8.326;2022-12-07T07:06:25;1.30;99.90
1568;DHT22;777;47.156;8.326;2022-12-07T07:08:54;1.30;99.90
1568;DHT22;777;47.156;8.326;2022-12-07T07:11:21;1.40;99.90
1568;DHT22;777;47.156;8.326;2022-12-07T07:13:48;1.40;99.90
1568;DHT22;777;47.156;8.326;2022-12-07T07:16:15;1.40;99.90
1568;DHT22;777;47.156;8.326;2022-12-07T07:18:42;1.40;99.90
1568;DHT22;777;47.156;8.326;2022-12-07T07:21:10;1.40;99.90
1568;DHT22;777;47.156;8.326;2022-12-07T07:23:37;1.40;99.90
1568;DHT22;777;47.156;8.326;2022-12-07T07:26:06;1.40;99.90
1568;DHT22;777;47.156;8.326;2022-12-07T07:28:33;1.50;99.90
1568;DHT22;777;47.156;8.326;2022-12-07T07:31:00;1.50;99.90
1568;DHT22;777;47.156;8.326;2022-12-07T07:33:27;1.50;99.90
1568;DHT22;777;47.156;8.326;2022-12-07T07:35:54;1.50;99.90
1568;DHT22;777;47.156;8.326;2022-12-07T07:38:21;1.60;99.90
1568;DHT22;777;47.156;8.326;2022-12-07T07:40:48;1.60;99.90
1568;DHT22;777;47.156;8.326;2022-12-07T07:43:16;1.60;99.90
1568;DHT22;777;47.156;8.326;2022-12-07T07:45:44;1.50;99.90
1568;DHT22;777;47.156;8.326;2022-12-07T07:48:11;1.60;99.90
1568;DHT22;777;47.156;8.326;2022-12-07T07:50:38;1.50;99.90
1568;DHT22;777;47.156;8.326;2022-12-07T07:53:05;1.50;99.90
1568;DHT22;777;47.156;8.326;2022-12-07T07:55:32;1.60;99.90
1568;DHT22;777;47.156;8.326;2022-12-07T07:57:59;1.60;99.90
1568;DHT22;777;47.156;8.326;2022-12-07T08:00:27;1.60;99.90
1568;DHT22;777;47.156;8.326;2022-12-07T08:02:54;1.70;99.90
1568;DHT22;777;47.156;8.326;2022-12-07T08:05:22;1.70;99.90
1568;DHT22;777;47.156;8.326;2022-12-07T08:07:49;1.70;99.90
1568;DHT22;777;47.156;8.326;2022-12-07T08:10:16;1.70;99.90
1568;DHT22;777;47.156;8.326;2022-12-07T08:12:43;1.80;99.90
1568;DHT22;777;47.156;8.326;2022-12-07T08:15:30;1.70;99.90
1568;DHT22;777;47.156;8.326;2022-12-07T08:17:57;1.80;99.90
1568;DHT22;777;47.156;8.326;2022-12-07T08:20:24;1.80;99.90
1568;DHT22;777;47.156;8.326;2022-12-07T08:22:52;1.80;99.90
1568;DHT22;777;47.156;8.326;2022-12-07T08:25:19;1.80;99.90
1568;DHT22;777;47.156;8.326;2022-12-07T08:27:46;1.80;99.90
1568;DHT22;777;47.156;8.326;2022-12-07T08:30:13;1.90;99.90
1568;DHT22;777;47.156;8.326;2022-12-07T08:32:43;1.90;99.90
1568;DHT22;777;47.156;8.326;2022-12-07T08:35:10;1.90;99.90
1568;DHT22;777;47.156;8.326;2022-12-07T08:37:38;1.90;99.90
1568;DHT22;777;47.156;8.326;2022-12-07T08:40:06;1.90;99.90
1568;DHT22;777;47.156;8.326;2022-12-07T08:42:34;2.00;99.90
1568;DHT22;777;47.156;8.326;2022-12-07T08:45:07;2.00;99.90
1568;DHT22;777;47.156;8.326;2022-12-07T08:47:35;2.00;99.90
1568;DHT22;777;47.156;8.326;2022-12-07T08:50:06;2.00;99.90
1568;DHT22;777;47.156;8.326;2022-12-07T08:52:35;2.00;99.90
1568;DHT22;777;47.156;8.326;2022-12-07T08:55:04;2.00;99.90
1568;DHT22;777;47.156;8.326;2022-12-07T08:57:32;2.10;99.90
1568;DHT22;777;47.156;8.326;2022-12-07T09:00:01;2.10;99.90
1568;DHT22;777;47.156;8.326;2022-12-07T09:02:30;2.10;99.90
1568;DHT22;777;47.156;8.326;2022-12-07T09:04:57;2.10;99.90
1568;DHT22;777;47.156;8.326;2022-12-07T09:07:26;2.10;99.90
1568;DHT22;777;47.156;8.326;2022-12-07T09:09:53;2.10;99.90
1568;DHT22;777;47.156;8.326;2022-12-07T09:12:21;2.10;99.90
1568;DHT22;777;47.156;8.326;2022-12-07T09:14:48;2.20;99.90
1568;DHT22;777;47.156;8.326;2022-12-07T09:17:15;2.20;99.90
1568;DHT22;777;47.156;8.326;2022-12-07T09:19:42;2.30;99.90
1568;DHT22;777;47.156;8.326;2022-12-07T09:22:09;2.30;99.90
1568;DHT22;777;47.156;8.326;2022-12-07T09:24:37;2.40;99.90
1568;DHT22;777;47.156;8.326;2022-12-07T09:27:04;2.50;99.90
1568;DHT22;777;47.156;8.326;2022-12-07T09:29:31;2.50;99.90
1568;DHT22;777;47.156;8.326;2022-12-07T09:31:58;2.50;99.90
1568;DHT22;777;47.156;8.326;2022-12-07T09:34:25;2.60;99.90
1568;DHT22;777;47.156;8.326;2022-12-07T09:36:53;2.50;99.90
1568;DHT22;777;47.156;8.326;2022-12-07T09:39:20;2.60;99.90
1568;DHT22;777;47.156;8.326;2022-12-07T09:41:48;2.70;99.90
1568;DHT22;777;47.156;8.326;2022-12-07T09:44:21;2.70;99.90
1568;DHT22;777;47.156;8.326;2022-12-07T09:46:50;2.80;99.90
1568;DHT22;777;47.156;8.326;2022-12-07T09:49:20;2.90;99.90
1568;DHT22;777;47.156;8.326;2022-12-07T09:51:58;2.90;99.90
1568;DHT22;777;47.156;8.326;2022-12-07T09:54:25;2.80;99.90
1568;DHT22;777;47.156;8.326;2022-12-07T09:56:54;2.80;99.90
1568;DHT22;777;47.156;8.326;2022-12-07T09:59:21;2.80;99.90
1568;DHT22;777;47.156;8.326;2022-12-07T10:01:49;2.80;99.90
1568;DHT22;777;47.156;8.326;2022-12-07T10:04:19;2.80;99.90
1568;DHT22;777;47.156;8.326;2022-12-07T10:06:47;2.80;99.90
1568;DHT22;777;47.156;8.326;2022-12-07T10:09:18;2.80;99.90
1568;DHT22;777;47.156;8.326;2022-12-07T10:12:01;2.80;99.90
1568;DHT22;777;47.156;8.326;2022-12-07T10:14:30;2.80;99.90
1568;DHT22;777;47.156;8.326;2022-12-07T10:16:57;2.80;99.90
1568;DHT22;777;47.156;8.326;2022-12-07T10:19:27;2.80;99.90
1568;DHT22;777;47.156;8.326;2022-12-07T10:22:03;2.70;99.90
1568;DHT22;777;47.156;8.326;2022-12-07T10:24:30;2.70;99.90
1568;DHT22;777;47.156;8.326;2022-12-07T10:26:57;2.70;99.90
1568;DHT22;777;47.156;8.326;2022-12-07T10:29:29;2.70;99.90
1568;DHT22;777;47.156;8.326;2022-12-07T10:31:59;2.70;99.90
1568;DHT22;777;47.156;8.326;2022-12-07T10:34:27;2.50;99.90
1568;DHT22;777;47.156;8.326;2022-12-07T10:37:15;2.30;99.90
1568;DHT22;777;47.156;8.326;2022-12-07T10:39:44;2.30;99.90
1568;DHT22;777;47.156;8.326;2022-12-07T10:42:19;2.30;99.90
1568;DHT22;777;47.156;8.326;2022-12-07T10:44:49;2.30;99.90
1568;DHT22;777;47.156;8.326;2022-12-07T10:47:24;2.30;99.90
1568;DHT22;777;47.156;8.326;2022-12-07T10:53:14;2.20;99.90
1568;DHT22;777;47.156;8.326;2022-12-07T10:55:56;2.30;99.90
1568;DHT22;777;47.156;8.326;2022-12-07T10:58:44;2.40;99.90
1568;DHT22;777;47.156;8.326;2022-12-07T11:01:24;2.50;99.90
1568;DHT22;777;47.156;8.326;2022-12-07T11:04:02;2.30;99.90
1568;DHT22;777;47.156;8.326;2022-12-07T11:06:34;2.20;99.90
1568;DHT22;777;47.156;8.326;2022-12-07T11:09:17;2.30;99.90
1568;DHT22;777;47.156;8.326;2022-12-07T11:11:55;2.40;99.90
1568;DHT22;777;47.156;8.326;2022-12-07T11:14:31;2.40;99.90
1568;DHT22;777;47.156;8.326;2022-12-07T11:17:08;2.50;99.90
1568;DHT22;777;47.156;8.326;2022-12-07T11:20:00;2.40;99.90
1568;DHT22;777;47.156;8.326;2022-12-07T11:22:36;2.30;99.90
1568;DHT22;777;47.156;8.326;2022-12-07T11:25:18;2.30;99.90
1568;DHT22;777;47.156;8.326;2022-12-07T11:27:51;2.30;99.90
1568;DHT22;777;47.156;8.326;2022-12-07T11:30:23;2.30;99.90
1568;DHT22;777;47.156;8.326;2022-12-07T11:33:11;2.30;99.90
1568;DHT22;777;47.156;8.326;2022-12-07T11:35:48;2.30;99.90
1568;DHT22;777;47.156;8.326;2022-12-07T11:38:19;2.30;99.90
1568;DHT22;777;47.156;8.326;2022-12-07T11:40:49;2.30;99.90
1568;DHT22;777;47.156;8.326;2022-12-07T11:43:22;2.30;99.90
1568;DHT22;777;47.156;8.326;2022-12-07T11:45:58;2.30;99.90
1568;DHT22;777;47.156;8.326;2022-12-07T11:48:33;2.20;99.90
1568;DHT22;777;47.156;8.326;2022-12-07T11:51:02;2.20;99.90
1568;DHT22;777;47.156;8.326;2022-12-07T11:53:35;2.20;99.90
1568;DHT22;777;47.156;8.326;2022-12-07T11:56:09;2.20;99.90
1568;DHT22;777;47.156;8.326;2022-12-07T11:58:47;2.20;99.90
1568;DHT22;777;47.156;8.326;2022-12-07T12:01:26;2.20;99.90
1568;DHT22;777;47.156;8.326;2022-12-07T12:04:02;2.30;99.90
1568;DHT22;777;47.156;8.326;2022-12-07T12:06:33;2.30;99.90
1568;DHT22;777;47.156;8.326;2022-12-07T12:09:04;2.30;99.90
1568;DHT22;777;47.156;8.326;2022-12-07T12:11:59;2.20;99.90
1568;DHT22;777;47.156;8.326;2022-12-07T12:14:47;2.30;99.90
1568;DHT22;777;47.156;8.326;2022-12-07T12:17:43;2.20;99.90
1568;DHT22;777;47.156;8.326;2022-12-07T12:20:20;2.20;99.90
1568;DHT22;777;47.156;8.326;2022-12-07T12:22:52;2.30;99.90
1568;DHT22;777;47.156;8.326;2022-12-07T12:25:23;2.40;99.90
1568;DHT22;777;47.156;8.326;2022-12-07T12:27:54;2.40;99.90
1568;DHT22;777;47.156;8.326;2022-12-07T12:30:31;2.40;99.90
1568;DHT22;777;47.156;8.326;2022-12-07T12:33:04;2.40;99.90
1568;DHT22;777;47.156;8.326;2022-12-07T12:35:34;2.40;99.90
1568;DHT22;777;47.156;8.326;2022-12-07T12:38:30;2.50;99.90
1568;DHT22;777;47.156;8.326;2022-12-07T12:41:00;2.60;99.90
1568;DHT22;777;47.156;8.326;2022-12-07T12:43:49;2.50;99.90
1568;DHT22;777;47.156;8.326;2022-12-07T12:46:52;2.50;99.90
1568;DHT22;777;47.156;8.326;2022-12-07T12:49:54;2.50;99.90
1568;DHT22;777;47.156;8.326;2022-12-07T12:53:00;2.50;99.90
1568;DHT22;777;47.156;8.326;2022-12-07T12:56:07;2.50;99.90
1568;DHT22;777;47.156;8.326;2022-12-07T12:58:40;2.50;99.90
1568;DHT22;777;47.156;8.326;2022-12-07T13:01:40;2.50;99.90
1568;DHT22;777;47.156;8.326;2022-12-07T13:04:38;2.60;99.90
1568;DHT22;777;47.156;8.326;2022-12-07T13:07:11;2.70;99.90
1568;DHT22;777;47.156;8.326;2022-12-07T13:09:44;2.70;99.90
1568;DHT22;777;47.156;8.326;2022-12-07T13:12:14;2.70;99.90
1568;DHT22;777;47.156;8.326;2022-12-07T13:14:54;2.70;99.90
1568;DHT22;777;47.156;8.326;2022-12-07T13:20:49;2.70;99.90
1568;DHT22;777;47.156;8.326;2022-12-07T13:23:26;2.70;99.90
1568;DHT22;777;47.156;8.326;2022-12-07T13:26:13;2.70;99.90
1568;DHT22;777;47.156;8.326;2022-12-07T13:28:43;2.80;99.90
1568;DHT22;777;47.156;8.326;2022-12-07T13:31:30;2.70;99.90
1568;DHT22;777;47.156;8.326;2022-12-07T13:33:59;2.70;99.90
1568;DHT22;777;47.156;8.326;2022-12-07T13:42:44;2.80;99.90
1568;DHT22;777;47.156;8.326;2022-12-07T13:45:21;2.80;99.90
1568;DHT22;777;47.156;8.326;2022-12-07T13:48:12;2.80;99.90
1568;DHT22;777;47.156;8.326;2022-12-07T13:50:40;2.80;99.90
1568;DHT22;777;47.156;8.326;2022-12-07T13:53:12;2.70;99.90
1568;DHT22;777;47.156;8.326;2022-12-07T13:55:45;2.70;99.90
1568;DHT22;777;47.156;8.326;2022-12-07T13:58:14;2.80;99.90
1568;DHT22;777;47.156;8.326;2022-12-07T14:00:43;2.70;99.90
1568;DHT22;777;47.156;8.326;2022-12-07T14:03:28;2.70;99.90
1568;DHT22;777;47.156;8.326;2022-12-07T14:06:19;2.70;99.90
1568;DHT22;777;47.156;8.326;2022-12-07T14:08:47;2.70;99.90
1568;DHT22;777;47.156;8.326;2022-12-07T14:11:17;2.80;99.90
1568;DHT22;777;47.156;8.326;2022-12-07T14:13:56;2.80;99.90
1568;DHT22;777;47.156;8.326;2022-12-07T14:16:26;2.80;99.90
1568;DHT22;777;47.156;8.326;2022-12-07T14:18:56;2.70;99.90
1568;DHT22;777;47.156;8.326;2022-12-07T14:21:25;2.70;99.90
1568;DHT22;777;47.156;8.326;2022-12-07T14:24:10;2.70;99.90
1568;DHT22;777;47.156;8.326;2022-12-07T14:26:38;2.70;99.90
1568;DHT22;777;47.156;8.326;2022-12-07T14:29:30;2.70;99.90
1568;DHT22;777;47.156;8.326;2022-12-07T14:32:04;2.70;99.90
1568;DHT22;777;47.156;8.326;2022-12-07T14:34:41;2.70;99.90
1568;DHT22;777;47.156;8.326;2022-12-07T14:37:09;2.70;99.90
1568;DHT22;777;47.156;8.326;2022-12-07T14:39:36;2.70;99.90
1568;DHT22;777;47.156;8.326;2022-12-07T14:42:03;2.70;99.90
1568;DHT22;777;47.156;8.326;2022-12-07T14:44:32;2.70;99.90
1568;DHT22;777;47.156;8.326;2022-12-07T14:46:59;2.70;99.90
1568;DHT22;777;47.156;8.326;2022-12-07T14:49:26;2.60;99.90
1568;DHT22;777;47.156;8.326;2022-12-07T14:51:53;2.60;99.90
1568;DHT22;777;47.156;8.326;2022-12-07T14:54:20;2.60;99.90
1568;DHT22;777;47.156;8.326;2022-12-07T14:56:51;2.50;99.90
1568;DHT22;777;47.156;8.326;2022-12-07T14:59:19;2.50;99.90
1568;DHT22;777;47.156;8.326;2022-12-07T15:01:47;2.50;99.90
1568;DHT22;777;47.156;8.326;2022-12-07T15:04:14;2.50;99.90
1568;DHT22;777;47.156;8.326;2022-12-07T15:06:41;2.50;99.90
1568;DHT22;777;47.156;8.326;2022-12-07T15:09:10;2.40;99.90
1568;DHT22;777;47.156;8.326;2022-12-07T15:11:37;2.40;99.90
1568;DHT22;777;47.156;8.326;2022-12-07T15:14:04;2.40;99.90
1568;DHT22;777;47.156;8.326;2022-12-07T15:16:40;2.40;99.90
1568;DHT22;777;47.156;8.326;2022-12-07T15:19:12;2.30;99.90
1568;DHT22;777;47.156;8.326;2022-12-07T15:21:40;2.30;99.90
1568;DHT22;777;47.156;8.326;2022-12-07T15:24:09;2.30;99.90
1568;DHT22;777;47.156;8.326;2022-12-07T15:26:38;2.30;99.90
1568;DHT22;777;47.156;8.326;2022-12-07T15:29:06;2.30;99.90
1568;DHT22;777;47.156;8.326;2022-12-07T15:31:33;2.40;99.90
1568;DHT22;777;47.156;8.326;2022-12-07T15:34:00;2.30;99.90
1568;DHT22;777;47.156;8.326;2022-12-07T15:36:31;2.30;99.90
1568;DHT22;777;47.156;8.326;2022-12-07T15:38:58;2.30;99.90
1568;DHT22;777;47.156;8.326;2022-12-07T15:41:25;2.30;99.90
1568;DHT22;777;47.156;8.326;2022-12-07T15:43:52;2.30;99.90
1568;DHT22;777;47.156;8.326;2022-12-07T15:46:37;2.30;99.90
1568;DHT22;777;47.156;8.326;2022-12-07T15:49:07;2.20;99.90
1568;DHT22;777;47.156;8.326;2022-12-07T15:51:37;2.20;99.90
1568;DHT22;777;47.156;8.326;2022-12-07T15:54:04;2.20;99.90
1568;DHT22;777;47.156;8.326;2022-12-07T15:56:31;2.20;99.90
1568;DHT22;777;47.156;8.326;2022-12-07T15:58:58;2.20;99.90
1568;DHT22;777;47.156;8.326;2022-12-07T16:01:25;2.20;99.90
1568;DHT22;777;47.156;8.326;2022-12-07T16:03:52;2.20;99.90
1568;DHT22;777;47.156;8.326;2022-12-07T16:06:19;2.20;99.90
1568;DHT22;777;47.156;8.326;2022-12-07T16:08:48;2.20;99.90
1568;DHT22;777;47.156;8.326;2022-12-07T16:11:15;2.20;99.90
1568;DHT22;777;47.156;8.326;2022-12-07T16:13:42;2.20;99.90
1568;DHT22;777;47.156;8.326;2022-12-07T16:16:12;2.20;99.90
1568;DHT22;777;47.156;8.326;2022-12-07T16:18:41;2.20;99.90
1568;DHT22;777;47.156;8.326;2022-12-07T16:21:08;2.20;99.90
1568;DHT22;777;47.156;8.326;2022-12-07T16:23:35;2.20;99.90
1568;DHT22;777;47.156;8.326;2022-12-07T16:26:08;2.20;99.90
1568;DHT22;777;47.156;8.326;2022-12-07T16:28:37;2.20;99.90
1568;DHT22;777;47.156;8.326;2022-12-07T16:31:05;2.20;99.90
1568;DHT22;777;47.156;8.326;2022-12-07T16:33:34;2.20;99.90
1568;DHT22;777;47.156;8.326;2022-12-07T16:36:02;2.20;99.90
1568;DHT22;777;47.156;8.326;2022-12-07T16:38:29;2.20;99.90
1568;DHT22;777;47.156;8.326;2022-12-07T16:40:56;2.20;99.90
1568;DHT22;777;47.156;8.326;2022-12-07T16:43:25;2.20;99.90
1568;DHT22;777;47.156;8.326;2022-12-07T16:45:52;2.10;99.90
1568;DHT22;777;47.156;8.326;2022-12-07T16:48:19;2.10;99.90
1568;DHT22;777;47.156;8.326;2022-12-07T16:50:46;2.10;99.90
1568;DHT22;777;47.156;8.326;2022-12-07T16:53:14;2.10;99.90
1568;DHT22;777;47.156;8.326;2022-12-07T16:55:43;2.10;99.90
1568;DHT22;777;47.156;8.326;2022-12-07T16:58:11;2.10;99.90
1568;DHT22;777;47.156;8.326;2022-12-07T17:00:41;2.10;99.90
1568;DHT22;777;47.156;8.326;2022-12-07T17:03:08;2.10;99.90
1568;DHT22;777;47.156;8.326;2022-12-07T17:05:38;2.10;99.90
1568;DHT22;777;47.156;8.326;2022-12-07T17:08:06;2.10;99.90
1568;DHT22;777;47.156;8.326;2022-12-07T17:10:34;2.10;99.90
1568;DHT22;777;47.156;8.326;2022-12-07T17:13:02;2.00;99.90
1568;DHT22;777;47.156;8.326;2022-12-07T17:15:58;2.10;99.90